createdAt,value
2019-05-22T00:00:31.519Z,76.67
2019-05-22T00:03:02.247Z,70.40
2019-05-22T00:05:34.810Z,75.90
2019-05-22T00:08:09.734Z,67.23
2019-05-22T00:10:41.137Z,72.53
2019-05-22T00:13:12.870Z,78.73
2019-05-22T00:15:43.057Z,74.23
2019-05-22T00:18:13.064Z,82.20
2019-05-22T00:20:42.116Z,73.87
2019-05-22T00:23:12.791Z,74.77
2019-05-22T00:25:43.557Z,68.43
2019-05-22T00:28:13.136Z,71.63
2019-05-22T00:30:45.338Z,69.23
2019-05-22T00:33:15.248Z,77.57
2019-05-22T00:35:44.968Z,75.03
2019-05-22T00:38:15.120Z,70.90
2019-05-22T00:40:45.399Z,69.13
2019-05-22T00:43:17.354Z,70.23
2019-05-22T00:45:49.220Z,67.57
2019-05-22T00:48:21.444Z,70.07
2019-05-22T00:50:57.380Z,77.43
2019-05-22T00:53:47.142Z,68.07
2019-05-22T00:56:34.827Z,71.40
2019-05-22T00:59:07.476Z,77.20
2019-05-22T01:01:47.997Z,71.43
2019-05-22T01:04:19.149Z,75.43
2019-05-22T01:06:48.654Z,88.30
2019-05-22T01:09:19.997Z,78.90
2019-05-22T01:11:48.717Z,77.60
2019-05-22T01:14:19.003Z,91.80
2019-05-22T01:16:49.315Z,88.87
2019-05-22T01:19:19.290Z,90.43
2019-05-22T01:21:50.619Z,79.60
2019-05-22T01:24:19.708Z,74.57
2019-05-22T01:26:49.888Z,78.97
2019-05-22T01:29:20.108Z,85.60
2019-05-22T01:31:53.311Z,78.63
2019-05-22T01:34:24.884Z,80.67
2019-05-22T01:36:55.448Z,78.03
2019-05-22T01:39:31.569Z,77.07
2019-05-22T01:42:01.874Z,81.65
2019-05-22T01:44:31.186Z,76.80
2019-05-22T01:47:04.410Z,86.33
2019-05-22T01:49:35.336Z,92.77
2019-05-22T01:52:04.122Z,90.23
2019-05-22T01:54:32.780Z,93.33
2019-05-22T01:57:06.794Z,96.23
2019-05-22T01:59:37.190Z,87.53
2019-05-22T02:02:08.745Z,92.47
2019-05-22T02:04:38.766Z,86.03
2019-05-22T02:07:09.582Z,84.00
2019-05-22T02:09:40.840Z,82.27
2019-05-22T02:12:18.312Z,77.80
2019-05-22T02:14:50.002Z,88.67
2019-05-22T02:17:22.496Z,86.80
2019-05-22T02:19:51.784Z,74.23
2019-05-22T02:22:20.424Z,73.60
2019-05-22T02:24:50.037Z,80.90
2019-05-22T02:27:19.809Z,77.87
2019-05-22T02:29:49.492Z,74.93
2019-05-22T02:32:20.497Z,77.37
2019-05-22T02:34:50.098Z,75.13
2019-05-22T02:37:20.835Z,72.87
2019-05-22T02:39:50.742Z,74.40
2019-05-22T02:42:26.198Z,79.13
2019-05-22T02:44:55.695Z,78.30
2019-05-22T02:47:25.234Z,77.87
2019-05-22T02:49:56.229Z,90.57
2019-05-22T02:52:25.584Z,84.10
2019-05-22T02:54:55.342Z,83.07
2019-05-22T02:57:24.445Z,85.90
2019-05-22T02:59:53.158Z,81.07
2019-05-22T03:02:23.453Z,79.83
2019-05-22T03:05:05.706Z,87.30
2019-05-22T03:07:34.665Z,131.70
2019-05-22T03:10:05.892Z,131.47
2019-05-22T03:12:36.387Z,109.00
2019-05-22T03:15:09.250Z,124.40
2019-05-22T03:17:41.206Z,122.77
2019-05-22T03:20:17.131Z,102.43
2019-05-22T03:23:01.103Z,100.97
2019-05-22T03:25:32.580Z,93.60
2019-05-22T03:28:02.147Z,95.77
2019-05-22T03:30:34.609Z,97.20
2019-05-22T03:33:06.269Z,94.22
2019-05-22T03:35:38.082Z,98.60
2019-05-22T03:38:08.804Z,105.20
2019-05-22T03:40:37.833Z,106.33
2019-05-22T03:43:18.955Z,105.87
2019-05-22T03:45:47.965Z,99.42
2019-05-22T03:48:16.835Z,94.33
2019-05-22T03:50:46.733Z,86.30
2019-05-22T03:53:18.148Z,95.40
2019-05-22T03:55:48.651Z,108.12
2019-05-22T03:58:18.441Z,155.10
2019-05-22T04:00:49.976Z,200.20
2019-05-22T04:03:19.688Z,231.00
2019-05-22T04:05:50.262Z,207.40
2019-05-22T04:08:21.369Z,174.83
2019-05-22T04:10:59.946Z,153.40
2019-05-22T04:13:30.334Z,198.30
2019-05-22T04:16:00.996Z,242.27
2019-05-22T04:18:31.240Z,225.10
2019-05-22T04:21:01.637Z,194.80
2019-05-22T04:23:30.636Z,216.43
2019-05-22T04:26:01.080Z,240.60
2019-05-22T04:28:31.805Z,257.57
2019-05-22T04:31:01.895Z,255.97
2019-05-22T04:33:30.891Z,272.93
2019-05-22T04:36:00.708Z,333.47
2019-05-22T04:38:30.595Z,310.33
2019-05-22T04:41:02.581Z,328.73
2019-05-22T04:43:34.023Z,299.40
2019-05-22T04:46:04.299Z,295.37
2019-05-22T04:48:35.380Z,257.60
2019-05-22T04:51:26.200Z,230.43
2019-05-22T04:53:56.305Z,190.27
2019-05-22T04:56:25.906Z,192.70
2019-05-22T04:58:55.214Z,149.67
2019-05-22T05:01:24.710Z,149.67
2019-05-22T05:03:53.537Z,114.50
2019-05-22T05:06:23.959Z,105.43
2019-05-22T05:08:52.949Z,113.32
2019-05-22T05:11:21.908Z,95.97
2019-05-22T05:13:50.482Z,94.73
2019-05-22T05:16:19.199Z,99.40
2019-05-22T05:18:48.327Z,95.40
2019-05-22T05:21:17.133Z,89.03
2019-05-22T05:23:46.279Z,94.27
2019-05-22T05:26:15.289Z,88.13
2019-05-22T05:28:45.135Z,85.70
2019-05-22T05:31:14.057Z,70.63
2019-05-22T05:33:45.742Z,80.87
2019-05-22T05:36:15.021Z,82.03
2019-05-22T05:38:44.048Z,72.23
2019-05-22T05:41:13.044Z,74.07
2019-05-22T05:43:42.396Z,76.40
2019-05-22T05:46:11.390Z,77.50
2019-05-22T05:48:40.965Z,79.33
2019-05-22T05:51:12.648Z,78.17
2019-05-22T05:54:02.370Z,77.93
2019-05-22T05:56:33.842Z,83.87
2019-05-22T05:59:04.626Z,91.70
2019-05-22T06:01:35.503Z,96.70
2019-05-22T06:04:05.217Z,92.53
2019-05-22T06:06:38.481Z,89.20
2019-05-22T06:09:10.964Z,89.67
2019-05-22T06:11:43.715Z,91.50
2019-05-22T06:14:20.711Z,102.43
2019-05-22T06:16:54.008Z,93.60
2019-05-22T06:19:24.280Z,86.33
2019-05-22T06:21:53.437Z,97.77
2019-05-22T06:24:25.557Z,97.80
2019-05-22T06:27:00.150Z,106.63
2019-05-22T06:29:33.021Z,105.90
2019-05-22T06:32:05.965Z,103.40
2019-05-22T06:34:37.045Z,107.53
2019-05-22T06:37:30.599Z,101.30
2019-05-22T06:40:00.121Z,104.03
2019-05-22T06:42:29.533Z,101.27
2019-05-22T06:44:58.505Z,96.73
2019-05-22T06:47:28.637Z,97.83
2019-05-22T06:49:58.571Z,93.00
2019-05-22T06:52:27.258Z,93.77
2019-05-22T06:54:56.910Z,83.77
2019-05-22T06:57:27.584Z,82.80
2019-05-22T07:00:12.359Z,80.80
2019-05-22T07:02:29.033Z,72.10
2019-05-22T07:04:57.710Z,68.70
2019-05-22T07:07:27.185Z,67.97
2019-05-22T07:09:56.702Z,71.97
2019-05-22T07:12:27.718Z,73.40
2019-05-22T07:15:07.040Z,68.43
2019-05-22T07:17:37.508Z,79.93
2019-05-22T07:20:07.984Z,71.47
2019-05-22T07:22:37.380Z,81.37
2019-05-22T07:25:09.521Z,62.40
2019-05-22T07:27:38.974Z,64.17
2019-05-22T07:30:09.544Z,69.60
2019-05-22T07:32:38.790Z,59.57
2019-05-22T07:35:07.844Z,57.17
2019-05-22T07:37:39.887Z,55.10
2019-05-22T07:40:08.897Z,54.10
2019-05-22T07:42:37.803Z,47.50
2019-05-22T07:45:07.341Z,46.87
2019-05-22T07:47:36.914Z,52.43
2019-05-22T07:50:08.015Z,42.67
2019-05-22T07:52:36.902Z,51.03
2019-05-22T07:55:05.823Z,48.33
2019-05-22T07:57:36.735Z,46.63
2019-05-22T08:00:06.166Z,43.23
2019-05-22T08:02:47.402Z,38.83
2019-05-22T08:05:17.604Z,39.43
2019-05-22T08:07:46.872Z,40.57
2019-05-22T08:10:17.696Z,37.20
2019-05-22T08:12:47.367Z,40.13
2019-05-22T08:15:18.387Z,38.83
2019-05-22T08:17:47.181Z,38.73
2019-05-22T08:20:16.108Z,36.77
2019-05-22T08:22:45.610Z,39.37
2019-05-22T08:25:14.554Z,38.37
2019-05-22T08:27:43.986Z,40.47
2019-05-22T08:30:13.576Z,36.33
2019-05-22T08:32:43.019Z,37.73
2019-05-22T08:35:12.412Z,41.17
2019-05-22T08:37:42.270Z,41.47
2019-05-22T08:40:14.397Z,42.97
2019-05-22T08:42:43.609Z,39.73
2019-05-22T08:45:15.824Z,39.03
2019-05-22T08:47:44.828Z,40.97
2019-05-22T08:50:15.501Z,39.97
2019-05-22T08:52:44.926Z,43.43
2019-05-22T08:55:14.694Z,43.30
2019-05-22T08:57:44.854Z,47.23
2019-05-22T09:00:18.927Z,41.83
2019-05-22T09:02:48.745Z,41.27
2019-05-22T09:05:21.275Z,39.40
2019-05-22T09:07:48.194Z,44.93
2019-05-22T09:10:17.914Z,42.60
2019-05-22T09:12:46.579Z,39.63
2019-05-22T09:15:15.576Z,41.50
2019-05-22T09:17:44.979Z,38.60
2019-05-22T09:20:14.489Z,41.07
2019-05-22T09:22:43.666Z,40.53
2019-05-22T09:25:14.468Z,38.37
2019-05-22T09:27:43.104Z,36.07
2019-05-22T09:30:12.231Z,39.63
2019-05-22T09:32:40.945Z,38.37
2019-05-22T09:35:10.155Z,39.37
2019-05-22T09:37:38.901Z,36.33
2019-05-22T09:40:08.030Z,36.40
2019-05-22T09:42:37.100Z,39.43
2019-05-22T09:45:08.976Z,36.90
2019-05-22T09:47:39.394Z,33.27
2019-05-22T09:50:10.293Z,31.13
2019-05-22T09:52:56.160Z,29.20
2019-05-22T09:55:12.256Z,29.07
2019-05-22T09:57:40.994Z,32.77
2019-05-22T10:00:11.781Z,29.07
2019-05-22T10:02:40.715Z,30.60
2019-05-22T10:05:10.689Z,29.17
2019-05-22T10:07:57.000Z,28.00
2019-05-22T10:10:13.257Z,26.40
2019-05-22T10:12:42.201Z,26.10
2019-05-22T10:15:11.985Z,21.93
2019-05-22T10:17:46.246Z,20.97
2019-05-22T10:20:15.224Z,19.53
2019-05-22T10:22:44.381Z,8.57
2019-05-22T10:25:16.382Z,8.97
2019-05-22T10:27:43.893Z,5.83
2019-05-22T10:30:15.681Z,6.47
2019-05-22T10:32:44.771Z,4.33
2019-05-22T10:35:14.846Z,5.53
2019-05-22T10:37:43.475Z,12.43
2019-05-22T10:40:13.357Z,10.93
2019-05-22T10:42:44.927Z,9.97
2019-05-22T10:45:14.200Z,13.17
2019-05-22T10:47:44.289Z,13.07
2019-05-22T10:50:14.276Z,14.13
2019-05-22T10:52:43.390Z,17.27
2019-05-22T10:55:14.373Z,14.17
2019-05-22T10:57:44.366Z,15.03
2019-05-22T11:00:16.022Z,11.47
2019-05-22T11:02:44.919Z,10.43
2019-05-22T11:05:13.940Z,9.63
2019-05-22T11:07:43.529Z,4.87
2019-05-22T11:10:13.716Z,5.73
2019-05-22T11:12:42.486Z,4.77
2019-05-22T11:15:12.964Z,8.40
2019-05-22T11:17:41.670Z,6.53
2019-05-22T11:20:13.123Z,9.40
2019-05-22T11:22:42.205Z,7.30
2019-05-22T11:25:13.088Z,7.63
2019-05-22T11:27:43.008Z,7.43
2019-05-22T11:30:16.537Z,8.03
2019-05-22T11:32:45.953Z,6.07
2019-05-22T11:35:17.151Z,4.20
2019-05-22T11:37:45.679Z,6.13
2019-05-22T11:40:16.646Z,4.13
2019-05-22T11:42:46.610Z,5.67
2019-05-22T11:45:16.209Z,6.10
2019-05-22T11:47:44.830Z,5.57
2019-05-22T11:50:16.342Z,3.67
2019-05-22T11:52:46.252Z,4.77
2019-05-22T11:55:16.130Z,3.37
2019-05-22T11:57:46.215Z,4.00
2019-05-22T12:00:16.682Z,5.13
2019-05-22T12:02:46.499Z,6.13
2019-05-22T12:05:16.200Z,4.83
2019-05-22T12:07:48.163Z,5.67
2019-05-22T12:10:18.792Z,4.53
2019-05-22T12:12:48.067Z,5.17
2019-05-22T12:15:20.019Z,5.47
2019-05-22T12:17:49.739Z,3.03
2019-05-22T12:20:19.326Z,5.67
2019-05-22T12:22:48.211Z,3.90
2019-05-22T12:25:19.012Z,3.47
2019-05-22T12:27:47.928Z,4.00
2019-05-22T12:30:18.135Z,4.10
2019-05-22T12:32:47.265Z,5.40
2019-05-22T12:35:16.482Z,2.97
2019-05-22T12:37:45.827Z,3.53
2019-05-22T12:40:17.283Z,5.37
2019-05-22T12:42:47.109Z,4.97
2019-05-22T12:45:18.036Z,4.60
2019-05-22T12:47:47.781Z,5.97
2019-05-22T12:50:19.132Z,4.97
2019-05-22T12:52:50.877Z,3.50
2019-05-22T12:55:20.905Z,5.40
2019-05-22T12:57:50.874Z,5.07
2019-05-22T13:00:26.693Z,4.77
2019-05-22T13:02:56.559Z,4.87
2019-05-22T13:05:26.210Z,8.47
2019-05-22T13:07:55.638Z,6.03
2019-05-22T13:10:24.735Z,6.87
2019-05-22T13:12:53.500Z,6.70
2019-05-22T13:15:25.044Z,5.83
2019-05-22T13:17:54.213Z,6.27
2019-05-22T13:20:40.963Z,4.43
2019-05-22T13:22:57.995Z,4.67
2019-05-22T13:25:29.731Z,5.03
2019-05-22T13:28:01.080Z,3.23
2019-05-22T13:30:32.642Z,3.83
2019-05-22T13:33:01.595Z,3.33
2019-05-22T13:35:31.954Z,4.83
2019-05-22T13:38:01.111Z,7.03
2019-05-22T13:40:30.370Z,8.03
2019-05-22T13:42:59.463Z,7.77
2019-05-22T13:45:30.346Z,4.57
2019-05-22T13:47:59.155Z,7.63
2019-05-22T13:50:29.488Z,5.47
2019-05-22T13:53:00.872Z,3.70
2019-05-22T13:55:30.294Z,6.30
2019-05-22T13:58:00.311Z,4.27
2019-05-22T14:00:29.444Z,4.03
2019-05-22T14:02:58.700Z,5.23
2019-05-22T14:05:29.172Z,3.63
2019-05-22T14:07:58.184Z,3.77
2019-05-22T14:10:28.772Z,5.10
2019-05-22T14:12:57.671Z,5.27
2019-05-22T14:15:26.849Z,3.50
2019-05-22T14:17:55.501Z,2.60
2019-05-22T14:20:24.638Z,4.70
2019-05-22T14:22:53.819Z,5.63
2019-05-22T14:25:24.406Z,4.17
2019-05-22T14:27:53.286Z,5.77
2019-05-22T14:30:24.787Z,2.60
2019-05-22T14:32:53.403Z,2.92
2019-05-22T14:35:23.726Z,3.12
2019-05-22T14:37:53.016Z,2.22
2019-05-22T14:40:21.839Z,2.22
2019-05-22T14:42:50.645Z,4.22
2019-05-22T14:45:20.022Z,4.10
2019-05-22T14:47:49.619Z,8.18
2019-05-22T14:50:18.671Z,2.92
2019-05-22T14:52:58.168Z,5.90
2019-05-22T14:55:28.292Z,6.30
2019-05-22T14:57:57.112Z,4.45
2019-05-22T15:00:27.586Z,6.50
2019-05-22T15:02:58.785Z,2.65
2019-05-22T15:05:26.815Z,3.20
2019-05-22T15:07:55.402Z,2.37
2019-05-22T15:10:26.807Z,4.08
2019-05-22T15:12:56.137Z,3.70
2019-05-22T15:15:25.420Z,2.90
2019-05-22T15:17:54.027Z,4.30
2019-05-22T15:20:36.780Z,2.40
2019-05-22T15:23:07.607Z,3.08
2019-05-22T15:25:36.662Z,2.60
2019-05-22T15:28:07.227Z,2.85
2019-05-22T15:30:36.397Z,3.50
2019-05-22T15:33:05.135Z,5.17
2019-05-22T15:35:33.837Z,4.92
2019-05-22T15:38:03.076Z,2.55
2019-05-22T15:40:32.045Z,3.10
2019-05-22T15:43:01.071Z,3.98
2019-05-22T15:45:32.254Z,3.65
2019-05-22T15:48:03.113Z,3.65
2019-05-22T15:50:35.104Z,2.50
2019-05-22T15:53:10.517Z,4.22
2019-05-22T15:55:39.176Z,1.47
2019-05-22T15:58:08.799Z,3.77
2019-05-22T16:00:38.964Z,2.20
2019-05-22T16:03:21.220Z,2.77
2019-05-22T16:05:51.694Z,4.80
2019-05-22T16:08:20.433Z,3.37
2019-05-22T16:10:50.935Z,1.67
2019-05-22T16:13:22.860Z,3.72
2019-05-22T16:15:54.722Z,2.80
2019-05-22T16:18:28.528Z,3.67
2019-05-22T16:21:01.800Z,2.87
2019-05-22T16:23:37.528Z,4.20
2019-05-22T16:26:09.040Z,3.30
2019-05-22T16:28:40.839Z,1.13
2019-05-22T16:31:10.397Z,2.90
2019-05-22T16:33:41.727Z,3.97
2019-05-22T16:36:10.854Z,3.50
2019-05-22T16:38:40.026Z,3.33
2019-05-22T16:41:10.254Z,4.03
2019-05-22T16:43:48.928Z,2.17
2019-05-22T16:46:15.184Z,3.07
2019-05-22T16:48:44.630Z,2.10
2019-05-22T16:51:16.429Z,3.53
2019-05-22T16:53:48.132Z,1.03
2019-05-22T16:56:19.188Z,1.90
2019-05-22T16:58:50.361Z,2.17
2019-05-22T17:01:21.254Z,29.17
2019-05-22T17:03:52.925Z,4.87
2019-05-22T17:06:22.246Z,3.57
2019-05-22T17:08:53.701Z,2.53
2019-05-22T17:11:24.210Z,1.97
2019-05-22T17:13:55.697Z,1.93
2019-05-22T17:16:25.870Z,4.03
2019-05-22T17:18:54.600Z,2.10
2019-05-22T17:21:23.440Z,4.10
2019-05-22T17:23:52.906Z,2.80
2019-05-22T17:26:21.542Z,4.77
2019-05-22T17:28:50.798Z,2.07
2019-05-22T17:31:20.112Z,2.13
2019-05-22T17:33:49.401Z,1.70
2019-05-22T17:36:20.159Z,2.50
2019-05-22T17:38:50.175Z,2.50
2019-05-22T17:41:19.346Z,2.57
2019-05-22T17:43:49.852Z,2.60
2019-05-22T17:46:20.460Z,2.80
2019-05-22T17:48:49.358Z,2.23
2019-05-22T17:51:18.502Z,2.10
2019-05-22T17:53:47.642Z,1.43
2019-05-22T17:56:17.237Z,2.40
2019-05-22T17:58:46.121Z,1.53
2019-05-22T18:01:15.911Z,3.60
2019-05-22T18:03:45.195Z,3.00
2019-05-22T18:06:14.196Z,1.93
2019-05-22T18:08:42.949Z,2.17
2019-05-22T18:11:11.556Z,2.00
2019-05-22T18:13:55.360Z,2.37
2019-05-22T18:16:24.096Z,3.07
2019-05-22T18:18:52.850Z,2.63
2019-05-22T18:21:21.950Z,5.40
2019-05-22T18:23:50.963Z,3.03
2019-05-22T18:26:23.992Z,2.97
2019-05-22T18:28:53.079Z,2.27
2019-05-22T18:31:22.268Z,1.93
2019-05-22T18:33:50.911Z,4.47
2019-05-22T18:36:19.721Z,5.33
2019-05-22T18:38:48.403Z,4.27
2019-05-22T18:41:17.026Z,3.90
2019-05-22T18:43:45.810Z,2.10
2019-05-22T18:46:14.664Z,2.47
2019-05-22T18:48:43.396Z,3.33
2019-05-22T18:51:12.932Z,3.00
2019-05-22T18:53:41.743Z,4.50
2019-05-22T18:56:11.043Z,5.57
2019-05-22T18:58:40.604Z,4.00
2019-05-22T19:01:09.909Z,3.67
2019-05-22T19:03:38.648Z,3.17
2019-05-22T19:06:07.410Z,5.17
2019-05-22T19:08:36.843Z,3.60
2019-05-22T19:11:05.913Z,4.07
2019-05-22T19:13:34.682Z,3.47
2019-05-22T19:16:03.697Z,5.10
2019-05-22T19:18:32.421Z,3.93
2019-05-22T19:21:01.527Z,4.13
2019-05-22T19:23:30.314Z,3.53
2019-05-22T19:25:58.972Z,4.47
2019-05-22T19:28:42.348Z,4.57
2019-05-22T19:30:58.372Z,3.53
2019-05-22T19:33:27.157Z,6.07
2019-05-22T19:35:56.185Z,2.60
2019-05-22T19:38:25.196Z,4.97
2019-05-22T19:40:54.019Z,5.80
2019-05-22T19:43:22.972Z,5.50
2019-05-22T19:45:51.891Z,4.47
2019-05-22T19:48:21.317Z,3.00
2019-05-22T19:50:50.980Z,5.47
2019-05-22T19:53:20.150Z,2.30
2019-05-22T19:55:49.360Z,3.17
2019-05-22T19:58:21.834Z,5.40
2019-05-22T20:00:50.048Z,4.10
2019-05-22T20:03:19.088Z,4.37
2019-05-22T20:05:48.486Z,5.27
2019-05-22T20:08:17.545Z,10.50
2019-05-22T20:10:46.320Z,5.43
2019-05-22T20:13:17.011Z,7.20
2019-05-22T20:15:45.985Z,6.13
2019-05-22T20:18:15.177Z,5.27
2019-05-22T20:20:44.538Z,7.87
2019-05-22T20:23:15.422Z,4.53
2019-05-22T20:25:44.264Z,5.83
2019-05-22T20:28:14.348Z,4.27
2019-05-22T20:30:43.224Z,5.37
2019-05-22T20:33:14.766Z,6.67
2019-05-22T20:35:43.529Z,6.97
2019-05-22T20:38:12.224Z,6.20
2019-05-22T20:40:41.668Z,8.23
2019-05-22T20:43:10.865Z,7.17
2019-05-22T20:45:42.867Z,5.33
2019-05-22T20:48:15.312Z,7.10
2019-05-22T20:50:44.693Z,6.33
2019-05-22T20:53:14.492Z,8.47
2019-05-22T20:55:44.035Z,5.20
2019-05-22T20:58:14.376Z,6.60
2019-05-22T21:00:43.452Z,3.50
2019-05-22T21:03:12.204Z,4.07
2019-05-22T21:05:42.568Z,3.47
2019-05-22T21:08:16.004Z,6.17
2019-05-22T21:10:46.819Z,3.50
2019-05-22T21:13:16.769Z,3.93
2019-05-22T21:15:47.647Z,4.23
2019-05-22T21:18:17.967Z,6.87
2019-05-22T21:20:54.705Z,3.67
2019-05-22T21:23:19.522Z,4.43
2019-05-22T21:25:48.608Z,5.03
2019-05-22T21:28:17.729Z,4.30
2019-05-22T21:30:47.029Z,4.37
2019-05-22T21:33:16.176Z,3.77
2019-05-22T21:35:44.791Z,5.33
2019-05-22T21:38:14.226Z,3.17
2019-05-22T21:40:43.804Z,6.40
2019-05-22T21:43:13.733Z,3.90
2019-05-22T21:45:43.257Z,4.70
2019-05-22T21:48:12.021Z,4.13
2019-05-22T21:50:41.063Z,4.23
2019-05-22T21:53:13.710Z,3.47
2019-05-22T21:55:45.541Z,5.37
2019-05-22T21:58:13.604Z,7.03
2019-05-22T22:00:48.038Z,6.00
2019-05-22T22:03:19.782Z,4.53
2019-05-22T22:05:48.473Z,5.07
2019-05-22T22:08:17.718Z,3.87
2019-05-22T22:10:46.790Z,4.70
2019-05-22T22:13:15.519Z,4.40
2019-05-22T22:15:44.697Z,6.87
2019-05-22T22:18:14.404Z,3.83
2019-05-22T22:20:43.607Z,6.20
2019-05-22T22:23:14.572Z,6.43
2019-05-22T22:25:44.176Z,5.43
2019-05-22T22:28:15.634Z,12.33
2019-05-22T22:30:58.924Z,9.43
2019-05-22T22:33:31.400Z,6.43
2019-05-22T22:36:02.211Z,7.60
2019-05-22T22:38:32.870Z,8.33
2019-05-22T22:41:02.600Z,8.83
2019-05-22T22:43:32.991Z,8.43
2019-05-22T22:46:10.723Z,6.87
2019-05-22T22:48:41.530Z,6.03
2019-05-22T22:51:12.610Z,7.93
2019-05-22T22:53:44.324Z,6.80
2019-05-22T22:56:15.518Z,6.97
2019-05-22T22:58:44.813Z,8.33
2019-05-22T23:01:17.812Z,8.30
2019-05-22T23:03:48.516Z,9.33
2019-05-22T23:06:17.606Z,12.57
2019-05-22T23:08:47.287Z,9.03
2019-05-22T23:11:17.172Z,8.33
2019-05-22T23:13:46.110Z,6.53
2019-05-22T23:16:15.984Z,7.43
2019-05-22T23:18:48.516Z,8.63
2019-05-22T23:21:17.664Z,8.83
2019-05-22T23:23:46.151Z,10.00
2019-05-22T23:26:16.275Z,8.67
2019-05-22T23:28:45.471Z,7.53
2019-05-22T23:31:14.884Z,8.87
2019-05-22T23:33:44.502Z,8.77
2019-05-22T23:36:13.517Z,8.80
2019-05-22T23:38:42.238Z,13.53
2019-05-22T23:41:12.631Z,7.97
2019-05-22T23:43:44.090Z,7.73
2019-05-22T23:46:14.796Z,10.63
2019-05-22T23:48:43.887Z,9.53
2019-05-22T23:51:12.825Z,11.80
2019-05-22T23:53:42.893Z,11.43
2019-05-22T23:56:11.714Z,11.57
2019-05-22T23:58:52.147Z,8.57
